sensor_id;sensor_type;location;lat;lon;timestamp;temperature;humidity
12761;DHT22;6444;49.742;6.114;2023-04-30T00:01:13;14.30;99.90
12761;DHT22;6444;49.742;6.114;2023-04-30T00:03:39;14.70;99.90
12761;DHT22;6444;49.742;6.114;2023-04-30T00:06:06;14.90;99.90
12761;DHT22;6444;49.742;6.114;2023-04-30T00:08:32;14.90;99.90
12761;DHT22;6444;49.742;6.114;2023-04-30T00:10:59;14.90;99.90
12761;DHT22;6444;49.742;6.114;2023-04-30T00:13:26;14.90;99.90
12761;DHT22;6444;49.742;6.114;2023-04-30T00:15:52;14.40;99.90
12761;DHT22;6444;49.742;6.114;2023-04-30T00:18:20;14.80;99.90
12761;DHT22;6444;49.742;6.114;2023-04-30T00:20:46;14.80;99.90
12761;DHT22;6444;49.742;6.114;2023-04-30T00:23:13;15.10;99.90
12761;DHT22;6444;49.742;6.114;2023-04-30T00:25:40;15.20;99.90
12761;DHT22;6444;49.742;6.114;2023-04-30T00:28:06;15.30;99.90
12761;DHT22;6444;49.742;6.114;2023-04-30T00:30:33;15.10;99.90
12761;DHT22;6444;49.742;6.114;2023-04-30T00:33:00;14.70;99.90
12761;DHT22;6444;49.742;6.114;2023-04-30T00:35:26;15.00;99.90
12761;DHT22;6444;49.742;6.114;2023-04-30T00:37:56;14.80;99.90
12761;DHT22;6444;49.742;6.114;2023-04-30T00:40:23;15.10;99.90
12761;DHT22;6444;49.742;6.114;2023-04-30T00:42:50;15.00;99.90
12761;DHT22;6444;49.742;6.114;2023-04-30T00:45:17;15.00;99.90
12761;DHT22;6444;49.742;6.114;2023-04-30T00:47:43;14.80;99.90
12761;DHT22;6444;49.742;6.114;2023-04-30T00:50:10;14.60;99.90
12761;DHT22;6444;49.742;6.114;2023-04-30T00:52:37;14.60;99.90
12761;DHT22;6444;49.742;6.114;2023-04-30T00:55:03;14.30;99.90
12761;DHT22;6444;49.742;6.114;2023-04-30T00:57:30;13.90;99.90
12761;DHT22;6444;49.742;6.114;2023-04-30T00:59:56;14.20;99.90
12761;DHT22;6444;49.742;6.114;2023-04-30T01:02:23;14.20;99.90
12761;DHT22;6444;49.742;6.114;2023-04-30T01:04:50;14.50;99.90
12761;DHT22;6444;49.742;6.114;2023-04-30T01:07:16;14.00;99.90
12761;DHT22;6444;49.742;6.114;2023-04-30T01:09:43;13.80;99.90
12761;DHT22;6444;49.742;6.114;2023-04-30T01:12:16;13.50;99.90
12761;DHT22;6444;49.742;6.114;2023-04-30T01:17:12;13.60;99.90
12761;DHT22;6444;49.742;6.114;2023-04-30T01:19:42;13.80;99.90
12761;DHT22;6444;49.742;6.114;2023-04-30T01:22:36;13.70;99.90
12761;DHT22;6444;49.742;6.114;2023-04-30T01:28:01;14.20;99.90
12761;DHT22;6444;49.742;6.114;2023-04-30T01:30:27;14.20;99.90
12761;DHT22;6444;49.742;6.114;2023-04-30T01:32:53;14.50;99.90
12761;DHT22;6444;49.742;6.114;2023-04-30T01:35:20;14.80;99.90
12761;DHT22;6444;49.742;6.114;2023-04-30T01:38:02;14.90;99.90
12761;DHT22;6444;49.742;6.114;2023-04-30T01:40:39;14.90;99.90
12761;DHT22;6444;49.742;6.114;2023-04-30T01:48:58;15.00;99.90
12761;DHT22;6444;49.742;6.114;2023-04-30T01:53:52;14.80;99.90
12761;DHT22;6444;49.742;6.114;2023-04-30T01:56:32;14.80;99.90
12761;DHT22;6444;49.742;6.114;2023-04-30T01:58:48;15.10;99.90
12761;DHT22;6444;49.742;6.114;2023-04-30T02:01:31;14.60;99.90
12761;DHT22;6444;49.742;6.114;2023-04-30T02:03:57;14.80;99.90
12761;DHT22;6444;49.742;6.114;2023-04-30T02:06:24;14.60;99.90
12761;DHT22;6444;49.742;6.114;2023-04-30T02:08:53;14.50;99.90
12761;DHT22;6444;49.742;6.114;2023-04-30T02:11:20;14.20;99.90
12761;DHT22;6444;49.742;6.114;2023-04-30T02:13:47;14.20;99.90
12761;DHT22;6444;49.742;6.114;2023-04-30T02:16:13;14.10;99.90
12761;DHT22;6444;49.742;6.114;2023-04-30T02:18:40;13.70;99.90
12761;DHT22;6444;49.742;6.114;2023-04-30T02:21:06;13.90;99.90
12761;DHT22;6444;49.742;6.114;2023-04-30T02:23:33;13.60;99.90
12761;DHT22;6444;49.742;6.114;2023-04-30T02:26:00;13.40;99.90
12761;DHT22;6444;49.742;6.114;2023-04-30T02:28:26;13.80;99.90
12761;DHT22;6444;49.742;6.114;2023-04-30T02:30:53;14.10;99.90
12761;DHT22;6444;49.742;6.114;2023-04-30T02:33:20;14.40;99.90
12761;DHT22;6444;49.742;6.114;2023-04-30T02:35:46;14.40;99.90
12761;DHT22;6444;49.742;6.114;2023-04-30T02:38:13;14.50;99.90
12761;DHT22;6444;49.742;6.114;2023-04-30T02:40:40;14.60;99.90
12761;DHT22;6444;49.742;6.114;2023-04-30T02:43:06;14.60;99.90
12761;DHT22;6444;49.742;6.114;2023-04-30T02:45:33;14.50;99.90
12761;DHT22;6444;49.742;6.114;2023-04-30T02:48:00;14.30;99.90
12761;DHT22;6444;49.742;6.114;2023-04-30T02:50:26;14.20;99.90
12761;DHT22;6444;49.742;6.114;2023-04-30T02:52:53;14.30;99.90
12761;DHT22;6444;49.742;6.114;2023-04-30T02:55:19;14.40;99.90
12761;DHT22;6444;49.742;6.114;2023-04-30T02:57:46;14.40;99.90
12761;DHT22;6444;49.742;6.114;2023-04-30T03:00:13;14.40;99.90
12761;DHT22;6444;49.742;6.114;2023-04-30T03:02:40;14.00;99.90
12761;DHT22;6444;49.742;6.114;2023-04-30T03:05:07;13.90;99.90
12761;DHT22;6444;49.742;6.114;2023-04-30T03:07:33;14.00;99.90
12761;DHT22;6444;49.742;6.114;2023-04-30T03:10:00;13.40;99.90
12761;DHT22;6444;49.742;6.114;2023-04-30T03:12:27;13.60;99.90
12761;DHT22;6444;49.742;6.114;2023-04-30T03:14:53;13.70;99.90
12761;DHT22;6444;49.742;6.114;2023-04-30T03:17:20;13.50;99.90
12761;DHT22;6444;49.742;6.114;2023-04-30T03:19:47;13.30;99.90
12761;DHT22;6444;49.742;6.114;2023-04-30T03:22:13;13.20;99.90
12761;DHT22;6444;49.742;6.114;2023-04-30T03:24:40;13.00;99.90
12761;DHT22;6444;49.742;6.114;2023-04-30T03:27:06;13.20;99.90
12761;DHT22;6444;49.742;6.114;2023-04-30T03:29:33;13.10;99.90
12761;DHT22;6444;49.742;6.114;2023-04-30T03:32:00;13.20;99.90
12761;DHT22;6444;49.742;6.114;2023-04-30T03:34:26;13.30;99.90
12761;DHT22;6444;49.742;6.114;2023-04-30T03:36:53;13.10;99.90
12761;DHT22;6444;49.742;6.114;2023-04-30T03:39:20;13.20;99.90
12761;DHT22;6444;49.742;6.114;2023-04-30T03:41:47;13.30;99.90
12761;DHT22;6444;49.742;6.114;2023-04-30T03:44:14;13.30;99.90
12761;DHT22;6444;49.742;6.114;2023-04-30T03:46:40;13.50;99.90
12761;DHT22;6444;49.742;6.114;2023-04-30T03:49:07;13.30;99.90
12761;DHT22;6444;49.742;6.114;2023-04-30T03:51:33;13.10;99.90
12761;DHT22;6444;49.742;6.114;2023-04-30T03:54:00;13.10;99.90
12761;DHT22;6444;49.742;6.114;2023-04-30T03:56:27;13.30;99.90
12761;DHT22;6444;49.742;6.114;2023-04-30T03:58:54;13.30;99.90
12761;DHT22;6444;49.742;6.114;2023-04-30T04:01:20;13.20;99.90
12761;DHT22;6444;49.742;6.114;2023-04-30T04:03:47;12.90;99.90
12761;DHT22;6444;49.742;6.114;2023-04-30T04:06:14;12.80;99.90
12761;DHT22;6444;49.742;6.114;2023-04-30T04:08:40;12.60;99.90
12761;DHT22;6444;49.742;6.114;2023-04-30T04:11:07;13.00;99.90
12761;DHT22;6444;49.742;6.114;2023-04-30T04:13:33;13.00;99.90
12761;DHT22;6444;49.742;6.114;2023-04-30T04:16:00;13.20;99.90
12761;DHT22;6444;49.742;6.114;2023-04-30T04:18:27;13.40;99.90
12761;DHT22;6444;49.742;6.114;2023-04-30T04:20:54;13.30;99.90
12761;DHT22;6444;49.742;6.114;2023-04-30T04:23:21;13.30;99.90
12761;DHT22;6444;49.742;6.114;2023-04-30T04:25:47;13.30;99.90
12761;DHT22;6444;49.742;6.114;2023-04-30T04:28:17;13.50;99.90
12761;DHT22;6444;49.742;6.114;2023-04-30T04:30:43;13.50;99.90
12761;DHT22;6444;49.742;6.114;2023-04-30T04:33:10;13.50;99.90
12761;DHT22;6444;49.742;6.114;2023-04-30T04:35:37;13.50;99.90
12761;DHT22;6444;49.742;6.114;2023-04-30T04:38:03;13.60;99.90
12761;DHT22;6444;49.742;6.114;2023-04-30T04:40:30;13.00;99.90
12761;DHT22;6444;49.742;6.114;2023-04-30T04:42:56;12.60;99.90
12761;DHT22;6444;49.742;6.114;2023-04-30T04:45:23;13.00;99.90
12761;DHT22;6444;49.742;6.114;2023-04-30T04:47:50;13.10;99.90
12761;DHT22;6444;49.742;6.114;2023-04-30T04:50:16;13.00;99.90
12761;DHT22;6444;49.742;6.114;2023-04-30T04:52:43;13.20;99.90
12761;DHT22;6444;49.742;6.114;2023-04-30T04:55:10;13.20;99.90
12761;DHT22;6444;49.742;6.114;2023-04-30T04:57:36;13.30;99.90
12761;DHT22;6444;49.742;6.114;2023-04-30T05:00:03;13.50;99.90
12761;DHT22;6444;49.742;6.114;2023-04-30T05:02:30;13.30;99.90
12761;DHT22;6444;49.742;6.114;2023-04-30T05:04:56;13.80;99.90
12761;DHT22;6444;49.742;6.114;2023-04-30T05:07:23;13.90;99.90
12761;DHT22;6444;49.742;6.114;2023-04-30T05:09:50;14.00;99.90
12761;DHT22;6444;49.742;6.114;2023-04-30T05:12:16;14.00;99.90
12761;DHT22;6444;49.742;6.114;2023-04-30T05:14:43;13.80;99.90
12761;DHT22;6444;49.742;6.114;2023-04-30T05:17:10;13.90;99.90
12761;DHT22;6444;49.742;6.114;2023-04-30T05:19:37;13.80;99.90
12761;DHT22;6444;49.742;6.114;2023-04-30T05:22:04;13.80;99.90
12761;DHT22;6444;49.742;6.114;2023-04-30T05:24:30;14.30;99.90
12761;DHT22;6444;49.742;6.114;2023-04-30T05:26:57;14.80;99.90
12761;DHT22;6444;49.742;6.114;2023-04-30T05:29:23;15.00;99.90
12761;DHT22;6444;49.742;6.114;2023-04-30T05:31:50;14.90;99.90
12761;DHT22;6444;49.742;6.114;2023-04-30T05:34:17;15.20;99.90
12761;DHT22;6444;49.742;6.114;2023-04-30T05:36:43;15.30;99.90
12761;DHT22;6444;49.742;6.114;2023-04-30T05:39:10;15.50;99.90
12761;DHT22;6444;49.742;6.114;2023-04-30T05:41:37;15.80;99.90
12761;DHT22;6444;49.742;6.114;2023-04-30T05:44:03;16.00;99.90
12761;DHT22;6444;49.742;6.114;2023-04-30T05:46:30;15.90;99.90
12761;DHT22;6444;49.742;6.114;2023-04-30T05:48:57;15.40;99.90
12761;DHT22;6444;49.742;6.114;2023-04-30T05:51:24;15.40;99.90
12761;DHT22;6444;49.742;6.114;2023-04-30T05:53:51;15.60;99.90
12761;DHT22;6444;49.742;6.114;2023-04-30T05:56:17;16.10;99.90
12761;DHT22;6444;49.742;6.114;2023-04-30T05:58:44;16.60;99.90
12761;DHT22;6444;49.742;6.114;2023-04-30T06:01:10;16.90;99.90
12761;DHT22;6444;49.742;6.114;2023-04-30T06:03:37;17.00;99.90
12761;DHT22;6444;49.742;6.114;2023-04-30T06:06:04;17.10;99.90
12761;DHT22;6444;49.742;6.114;2023-04-30T06:08:31;18.80;99.90
12761;DHT22;6444;49.742;6.114;2023-04-30T06:10:58;18.70;99.90
12761;DHT22;6444;49.742;6.114;2023-04-30T06:13:24;20.50;99.90
12761;DHT22;6444;49.742;6.114;2023-04-30T06:15:51;20.40;99.90
12761;DHT22;6444;49.742;6.114;2023-04-30T06:18:18;20.40;99.90
12761;DHT22;6444;49.742;6.114;2023-04-30T06:20:44;20.60;99.90
12761;DHT22;6444;49.742;6.114;2023-04-30T06:23:11;21.70;99.90
12761;DHT22;6444;49.742;6.114;2023-04-30T06:25:38;22.90;99.90
12761;DHT22;6444;49.742;6.114;2023-04-30T06:28:04;23.80;99.90
12761;DHT22;6444;49.742;6.114;2023-04-30T06:30:31;25.00;99.90
12761;DHT22;6444;49.742;6.114;2023-04-30T06:32:57;26.30;99.90
12761;DHT22;6444;49.742;6.114;2023-04-30T06:35:24;27.00;99.70
12761;DHT22;6444;49.742;6.114;2023-04-30T06:37:51;25.70;99.80
12761;DHT22;6444;49.742;6.114;2023-04-30T06:40:17;25.20;99.10
12761;DHT22;6444;49.742;6.114;2023-04-30T06:42:44;25.60;99.70
12761;DHT22;6444;49.742;6.114;2023-04-30T06:45:11;26.50;95.90
12761;DHT22;6444;49.742;6.114;2023-04-30T06:47:38;26.40;95.90
12761;DHT22;6444;49.742;6.114;2023-04-30T06:50:05;24.60;97.60
12761;DHT22;6444;49.742;6.114;2023-04-30T06:52:31;26.10;97.70
12761;DHT22;6444;49.742;6.114;2023-04-30T06:54:58;27.30;96.40
12761;DHT22;6444;49.742;6.114;2023-04-30T06:57:25;25.40;95.20
12761;DHT22;6444;49.742;6.114;2023-04-30T06:59:51;25.50;96.90
12761;DHT22;6444;49.742;6.114;2023-04-30T07:02:18;27.80;96.80
12761;DHT22;6444;49.742;6.114;2023-04-30T07:04:44;30.50;94.80
12761;DHT22;6444;49.742;6.114;2023-04-30T07:07:11;30.40;90.10
12761;DHT22;6444;49.742;6.114;2023-04-30T07:09:38;30.00;90.70
12761;DHT22;6444;49.742;6.114;2023-04-30T07:12:05;29.90;90.60
12761;DHT22;6444;49.742;6.114;2023-04-30T07:14:32;30.70;87.00
12761;DHT22;6444;49.742;6.114;2023-04-30T07:16:58;27.60;90.90
12761;DHT22;6444;49.742;6.114;2023-04-30T07:19:25;25.50;90.70
12761;DHT22;6444;49.742;6.114;2023-04-30T07:21:52;22.50;94.20
12761;DHT22;6444;49.742;6.114;2023-04-30T07:24:18;20.50;96.50
12761;DHT22;6444;49.742;6.114;2023-04-30T07:26:45;20.60;96.60
12761;DHT22;6444;49.742;6.114;2023-04-30T07:29:12;21.10;98.40
12761;DHT22;6444;49.742;6.114;2023-04-30T07:31:39;21.10;98.40
12761;DHT22;6444;49.742;6.114;2023-04-30T07:34:05;22.70;95.20
12761;DHT22;6444;49.742;6.114;2023-04-30T07:36:32;23.10;95.10
12761;DHT22;6444;49.742;6.114;2023-04-30T07:38:59;24.60;94.70
12761;DHT22;6444;49.742;6.114;2023-04-30T07:41:25;25.90;92.60
12761;DHT22;6444;49.742;6.114;2023-04-30T07:43:52;25.40;92.50
12761;DHT22;6444;49.742;6.114;2023-04-30T07:46:19;24.70;93.00
12761;DHT22;6444;49.742;6.114;2023-04-30T07:48:46;24.60;93.00
12761;DHT22;6444;49.742;6.114;2023-04-30T07:51:13;25.20;93.70
12761;DHT22;6444;49.742;6.114;2023-04-30T07:53:39;25.70;92.10
12761;DHT22;6444;49.742;6.114;2023-04-30T07:56:06;27.60;90.80
12761;DHT22;6444;49.742;6.114;2023-04-30T07:58:33;25.20;91.50
12761;DHT22;6444;49.742;6.114;2023-04-30T08:01:00;25.20;91.50
12761;DHT22;6444;49.742;6.114;2023-04-30T08:03:27;26.30;90.60
12761;DHT22;6444;49.742;6.114;2023-04-30T08:05:53;26.90;89.40
12761;DHT22;6444;49.742;6.114;2023-04-30T08:08:20;26.60;87.80
12761;DHT22;6444;49.742;6.114;2023-04-30T08:10:46;24.90;90.00
12761;DHT22;6444;49.742;6.114;2023-04-30T08:13:13;24.00;90.50
12761;DHT22;6444;49.742;6.114;2023-04-30T08:15:41;22.30;93.50
12761;DHT22;6444;49.742;6.114;2023-04-30T08:18:08;22.30;93.50
12761;DHT22;6444;49.742;6.114;2023-04-30T08:20:34;24.00;91.40
12761;DHT22;6444;49.742;6.114;2023-04-30T08:23:00;24.90;91.50
12761;DHT22;6444;49.742;6.114;2023-04-30T08:25:27;24.10;88.90
12761;DHT22;6444;49.742;6.114;2023-04-30T08:27:54;22.20;91.70
12761;DHT22;6444;49.742;6.114;2023-04-30T08:30:20;20.30;91.70
12761;DHT22;6444;49.742;6.114;2023-04-30T08:32:47;19.70;92.30
12761;DHT22;6444;49.742;6.114;2023-04-30T08:35:14;19.30;93.20
12761;DHT22;6444;49.742;6.114;2023-04-30T08:37:40;19.20;92.60
12761;DHT22;6444;49.742;6.114;2023-04-30T08:40:07;19.30;92.40
12761;DHT22;6444;49.742;6.114;2023-04-30T08:42:34;18.20;92.80
12761;DHT22;6444;49.742;6.114;2023-04-30T08:45:00;17.80;95.50
12761;DHT22;6444;49.742;6.114;2023-04-30T08:47:27;17.70;95.30
12761;DHT22;6444;49.742;6.114;2023-04-30T08:49:53;17.80;95.60
12761;DHT22;6444;49.742;6.114;2023-04-30T08:52:20;18.00;94.30
12761;DHT22;6444;49.742;6.114;2023-04-30T08:54:47;17.20;95.70
12761;DHT22;6444;49.742;6.114;2023-04-30T08:57:14;17.20;96.10
12761;DHT22;6444;49.742;6.114;2023-04-30T08:59:43;17.10;96.00
12761;DHT22;6444;49.742;6.114;2023-04-30T09:02:07;17.80;94.30
12761;DHT22;6444;49.742;6.114;2023-04-30T09:04:34;17.50;94.80
12761;DHT22;6444;49.742;6.114;2023-04-30T09:07:01;17.10;95.10
12761;DHT22;6444;49.742;6.114;2023-04-30T09:09:36;17.80;94.60
12761;DHT22;6444;49.742;6.114;2023-04-30T09:14:38;18.70;94.30
12761;DHT22;6444;49.742;6.114;2023-04-30T09:17:05;18.90;93.80
12761;DHT22;6444;49.742;6.114;2023-04-30T09:19:32;18.40;93.30
12761;DHT22;6444;49.742;6.114;2023-04-30T09:22:10;18.30;93.30
12761;DHT22;6444;49.742;6.114;2023-04-30T09:24:26;18.30;93.90
12761;DHT22;6444;49.742;6.114;2023-04-30T09:26:52;18.50;93.30
12761;DHT22;6444;49.742;6.114;2023-04-30T09:29:20;19.00;93.70
12761;DHT22;6444;49.742;6.114;2023-04-30T09:31:46;19.00;93.70
12761;DHT22;6444;49.742;6.114;2023-04-30T09:34:13;20.60;92.20
12761;DHT22;6444;49.742;6.114;2023-04-30T09:36:52;20.50;91.40
12761;DHT22;6444;49.742;6.114;2023-04-30T09:39:19;20.10;92.00
12761;DHT22;6444;49.742;6.114;2023-04-30T09:41:45;18.50;93.20
12761;DHT22;6444;49.742;6.114;2023-04-30T09:44:28;18.30;93.90
12761;DHT22;6444;49.742;6.114;2023-04-30T09:46:58;18.20;93.80
12761;DHT22;6444;49.742;6.114;2023-04-30T09:49:24;18.40;95.50
12761;DHT22;6444;49.742;6.114;2023-04-30T09:51:54;19.10;94.20
12761;DHT22;6444;49.742;6.114;2023-04-30T09:54:21;18.60;93.80
12761;DHT22;6444;49.742;6.114;2023-04-30T09:56:47;18.50;93.10
12761;DHT22;6444;49.742;6.114;2023-04-30T09:59:13;18.80;93.60
12761;DHT22;6444;49.742;6.114;2023-04-30T10:01:40;19.00;93.90
12761;DHT22;6444;49.742;6.114;2023-04-30T10:04:07;19.80;92.70
12761;DHT22;6444;49.742;6.114;2023-04-30T10:06:33;19.50;92.90
12761;DHT22;6444;49.742;6.114;2023-04-30T10:09:01;19.20;92.60
12761;DHT22;6444;49.742;6.114;2023-04-30T10:11:27;19.10;92.50
12761;DHT22;6444;49.742;6.114;2023-04-30T10:16:34;19.10;93.50
12761;DHT22;6444;49.742;6.114;2023-04-30T10:19:02;19.40;93.40
12761;DHT22;6444;49.742;6.114;2023-04-30T10:21:26;19.80;94.50
12761;DHT22;6444;49.742;6.114;2023-04-30T10:23:53;20.50;92.50
12761;DHT22;6444;49.742;6.114;2023-04-30T10:26:19;20.10;91.30
12761;DHT22;6444;49.742;6.114;2023-04-30T10:28:47;18.70;92.70
12761;DHT22;6444;49.742;6.114;2023-04-30T10:31:13;18.60;92.60
12761;DHT22;6444;49.742;6.114;2023-04-30T10:33:50;18.30;93.70
12761;DHT22;6444;49.742;6.114;2023-04-30T10:36:12;18.60;93.60
12761;DHT22;6444;49.742;6.114;2023-04-30T10:38:39;18.90;94.20
12761;DHT22;6444;49.742;6.114;2023-04-30T10:41:06;18.30;93.50
12761;DHT22;6444;49.742;6.114;2023-04-30T10:43:34;18.50;93.10
12761;DHT22;6444;49.742;6.114;2023-04-30T10:45:59;19.30;93.30
12761;DHT22;6444;49.742;6.114;2023-04-30T10:48:25;19.80;93.60
12761;DHT22;6444;49.742;6.114;2023-04-30T10:50:54;19.90;91.80
12761;DHT22;6444;49.742;6.114;2023-04-30T10:53:20;19.80;91.80
12761;DHT22;6444;49.742;6.114;2023-04-30T10:56:02;19.80;91.80
12761;DHT22;6444;49.742;6.114;2023-04-30T10:58:31;20.70;91.30
12761;DHT22;6444;49.742;6.114;2023-04-30T11:01:04;21.70;90.80
12761;DHT22;6444;49.742;6.114;2023-04-30T11:03:29;21.40;91.00
12761;DHT22;6444;49.742;6.114;2023-04-30T11:05:56;21.70;91.60
12761;DHT22;6444;49.742;6.114;2023-04-30T11:08:37;21.90;90.10
12761;DHT22;6444;49.742;6.114;2023-04-30T11:11:03;21.80;89.80
12761;DHT22;6444;49.742;6.114;2023-04-30T11:13:39;21.50;90.10
12761;DHT22;6444;49.742;6.114;2023-04-30T11:16:07;22.30;87.50
12761;DHT22;6444;49.742;6.114;2023-04-30T11:18:33;22.30;87.50
12761;DHT22;6444;49.742;6.114;2023-04-30T11:21:00;21.60;86.90
12761;DHT22;6444;49.742;6.114;2023-04-30T11:23:26;20.30;90.50
12761;DHT22;6444;49.742;6.114;2023-04-30T11:25:54;20.30;88.70
12761;DHT22;6444;49.742;6.114;2023-04-30T11:28:21;21.60;89.70
12761;DHT22;6444;49.742;6.114;2023-04-30T11:30:53;22.00;89.40
12761;DHT22;6444;49.742;6.114;2023-04-30T11:33:19;22.70;90.10
12761;DHT22;6444;49.742;6.114;2023-04-30T11:35:46;22.80;83.30
12761;DHT22;6444;49.742;6.114;2023-04-30T11:38:12;22.50;84.20
12761;DHT22;6444;49.742;6.114;2023-04-30T11:40:39;23.30;87.10
12761;DHT22;6444;49.742;6.114;2023-04-30T11:43:06;25.20;85.60
12761;DHT22;6444;49.742;6.114;2023-04-30T11:45:32;26.30;82.40
12761;DHT22;6444;49.742;6.114;2023-04-30T11:47:59;26.10;82.10
12761;DHT22;6444;49.742;6.114;2023-04-30T11:50:26;25.70;80.90
12761;DHT22;6444;49.742;6.114;2023-04-30T11:52:52;24.90;80.40
12761;DHT22;6444;49.742;6.114;2023-04-30T11:55:20;24.90;80.50
12761;DHT22;6444;49.742;6.114;2023-04-30T11:57:46;24.60;80.00
12761;DHT22;6444;49.742;6.114;2023-04-30T12:00:19;25.20;83.80
12761;DHT22;6444;49.742;6.114;2023-04-30T12:02:45;26.90;79.90
12761;DHT22;6444;49.742;6.114;2023-04-30T12:05:12;26.70;79.10
12761;DHT22;6444;49.742;6.114;2023-04-30T12:07:38;25.90;79.70
12761;DHT22;6444;49.742;6.114;2023-04-30T12:10:04;25.20;78.50
12761;DHT22;6444;49.742;6.114;2023-04-30T12:12:32;22.90;83.60
12761;DHT22;6444;49.742;6.114;2023-04-30T12:15:07;22.80;83.40
12761;DHT22;6444;49.742;6.114;2023-04-30T12:17:34;22.40;85.20
12761;DHT22;6444;49.742;6.114;2023-04-30T12:19:58;22.90;84.00
12761;DHT22;6444;49.742;6.114;2023-04-30T12:22:24;22.50;83.30
12761;DHT22;6444;49.742;6.114;2023-04-30T12:24:51;21.90;83.60
12761;DHT22;6444;49.742;6.114;2023-04-30T12:27:17;21.80;85.50
12761;DHT22;6444;49.742;6.114;2023-04-30T12:29:45;21.60;86.00
12761;DHT22;6444;49.742;6.114;2023-04-30T12:32:11;21.50;85.90
12761;DHT22;6444;49.742;6.114;2023-04-30T12:34:38;20.40;86.70
12761;DHT22;6444;49.742;6.114;2023-04-30T12:37:05;20.40;88.50
12761;DHT22;6444;49.742;6.114;2023-04-30T12:39:34;21.40;88.50
12761;DHT22;6444;49.742;6.114;2023-04-30T12:42:01;22.00;87.60
12761;DHT22;6444;49.742;6.114;2023-04-30T12:44:28;22.50;84.10
12761;DHT22;6444;49.742;6.114;2023-04-30T12:46:56;22.40;83.90
12761;DHT22;6444;49.742;6.114;2023-04-30T12:49:32;22.60;83.40
12761;DHT22;6444;49.742;6.114;2023-04-30T12:52:04;22.90;83.30
12761;DHT22;6444;49.742;6.114;2023-04-30T12:54:30;22.40;83.40
12761;DHT22;6444;49.742;6.114;2023-04-30T12:57:08;21.30;82.50
12761;DHT22;6444;49.742;6.114;2023-04-30T12:59:38;20.60;84.50
12761;DHT22;6444;49.742;6.114;2023-04-30T13:02:07;21.00;85.10
12761;DHT22;6444;49.742;6.114;2023-04-30T13:04:33;21.10;83.60
12761;DHT22;6444;49.742;6.114;2023-04-30T13:07:00;21.00;86.20
12761;DHT22;6444;49.742;6.114;2023-04-30T13:09:27;21.10;83.70
12761;DHT22;6444;49.742;6.114;2023-04-30T13:11:53;21.10;82.90
12761;DHT22;6444;49.742;6.114;2023-04-30T13:14:20;20.50;86.60
12761;DHT22;6444;49.742;6.114;2023-04-30T13:16:46;20.10;84.50
12761;DHT22;6444;49.742;6.114;2023-04-30T13:19:13;20.50;85.10
12761;DHT22;6444;49.742;6.114;2023-04-30T13:21:40;21.40;83.50
12761;DHT22;6444;49.742;6.114;2023-04-30T13:24:07;21.40;83.40
12761;DHT22;6444;49.742;6.114;2023-04-30T13:26:35;22.00;85.80
12761;DHT22;6444;49.742;6.114;2023-04-30T13:29:00;22.00;82.10
12761;DHT22;6444;49.742;6.114;2023-04-30T13:31:27;21.30;83.90
12761;DHT22;6444;49.742;6.114;2023-04-30T13:33:54;21.10;88.30
12761;DHT22;6444;49.742;6.114;2023-04-30T13:36:20;20.90;86.60
12761;DHT22;6444;49.742;6.114;2023-04-30T13:38:47;21.30;83.80
12761;DHT22;6444;49.742;6.114;2023-04-30T13:41:13;21.30;85.80
12761;DHT22;6444;49.742;6.114;2023-04-30T13:43:40;21.00;81.30
12761;DHT22;6444;49.742;6.114;2023-04-30T13:46:09;20.70;83.90
12761;DHT22;6444;49.742;6.114;2023-04-30T13:48:36;21.30;82.50
12761;DHT22;6444;49.742;6.114;2023-04-30T13:51:03;21.20;83.50
12761;DHT22;6444;49.742;6.114;2023-04-30T13:53:29;21.00;86.70
12761;DHT22;6444;49.742;6.114;2023-04-30T13:55:56;21.30;84.40
12761;DHT22;6444;49.742;6.114;2023-04-30T13:58:24;20.10;85.60
12761;DHT22;6444;49.742;6.114;2023-04-30T14:00:50;20.10;85.40
12761;DHT22;6444;49.742;6.114;2023-04-30T14:03:19;20.10;83.30
12761;DHT22;6444;49.742;6.114;2023-04-30T14:05:46;19.80;85.50
12761;DHT22;6444;49.742;6.114;2023-04-30T14:08:12;19.60;85.30
12761;DHT22;6444;49.742;6.114;2023-04-30T14:10:39;20.10;84.00
12761;DHT22;6444;49.742;6.114;2023-04-30T14:13:06;20.20;84.40
12761;DHT22;6444;49.742;6.114;2023-04-30T14:15:33;19.90;84.20
12761;DHT22;6444;49.742;6.114;2023-04-30T14:17:59;20.20;83.80
12761;DHT22;6444;49.742;6.114;2023-04-30T14:20:26;20.10;83.60
12761;DHT22;6444;49.742;6.114;2023-04-30T14:22:53;20.40;84.50
12761;DHT22;6444;49.742;6.114;2023-04-30T14:25:20;20.30;84.40
12761;DHT22;6444;49.742;6.114;2023-04-30T14:27:46;21.10;82.80
12761;DHT22;6444;49.742;6.114;2023-04-30T14:30:13;21.20;82.50
12761;DHT22;6444;49.742;6.114;2023-04-30T14:32:39;21.60;82.50
12761;DHT22;6444;49.742;6.114;2023-04-30T14:35:07;22.10;82.90
12761;DHT22;6444;49.742;6.114;2023-04-30T14:37:33;22.10;82.90
12761;DHT22;6444;49.742;6.114;2023-04-30T14:40:00;22.10;81.10
12761;DHT22;6444;49.742;6.114;2023-04-30T14:42:27;21.40;81.10
12761;DHT22;6444;49.742;6.114;2023-04-30T14:44:53;21.10;81.70
12761;DHT22;6444;49.742;6.114;2023-04-30T14:47:20;20.40;85.40
12761;DHT22;6444;49.742;6.114;2023-04-30T14:49:47;20.30;86.20
12761;DHT22;6444;49.742;6.114;2023-04-30T14:52:14;20.30;86.10
12761;DHT22;6444;49.742;6.114;2023-04-30T14:54:41;20.50;82.80
12761;DHT22;6444;49.742;6.114;2023-04-30T14:57:07;20.60;83.80
12761;DHT22;6444;49.742;6.114;2023-04-30T14:59:34;20.50;80.10
12761;DHT22;6444;49.742;6.114;2023-04-30T15:02:01;20.20;81.90
12761;DHT22;6444;49.742;6.114;2023-04-30T15:04:27;20.10;85.80
12761;DHT22;6444;49.742;6.114;2023-04-30T15:06:54;20.20;83.30
12761;DHT22;6444;49.742;6.114;2023-04-30T15:09:20;19.90;83.00
12761;DHT22;6444;49.742;6.114;2023-04-30T15:11:47;19.60;83.30
12761;DHT22;6444;49.742;6.114;2023-04-30T15:14:14;19.60;85.00
12761;DHT22;6444;49.742;6.114;2023-04-30T15:16:40;19.70;85.70
12761;DHT22;6444;49.742;6.114;2023-04-30T15:19:07;19.50;84.50
12761;DHT22;6444;49.742;6.114;2023-04-30T15:21:34;20.20;84.30
12761;DHT22;6444;49.742;6.114;2023-04-30T15:24:01;20.20;84.20
12761;DHT22;6444;49.742;6.114;2023-04-30T15:26:28;20.40;82.90
12761;DHT22;6444;49.742;6.114;2023-04-30T15:28:54;20.20;83.70
12761;DHT22;6444;49.742;6.114;2023-04-30T15:31:21;20.50;83.30
12761;DHT22;6444;49.742;6.114;2023-04-30T15:33:47;20.30;83.90
12761;DHT22;6444;49.742;6.114;2023-04-30T15:36:14;20.00;85.40
12761;DHT22;6444;49.742;6.114;2023-04-30T15:38:41;19.90;86.70
12761;DHT22;6444;49.742;6.114;2023-04-30T15:41:07;19.80;87.50
12761;DHT22;6444;49.742;6.114;2023-04-30T15:43:34;20.00;85.40
12761;DHT22;6444;49.742;6.114;2023-04-30T15:46:01;19.90;85.50
12761;DHT22;6444;49.742;6.114;2023-04-30T15:48:27;19.70;86.50
12761;DHT22;6444;49.742;6.114;2023-04-30T15:50:54;19.30;87.00
12761;DHT22;6444;49.742;6.114;2023-04-30T15:53:21;20.00;86.50
12761;DHT22;6444;49.742;6.114;2023-04-30T15:55:48;20.00;86.40
12761;DHT22;6444;49.742;6.114;2023-04-30T15:58:15;20.40;85.80
12761;DHT22;6444;49.742;6.114;2023-04-30T16:00:41;20.30;86.00
12761;DHT22;6444;49.742;6.114;2023-04-30T16:03:08;20.30;85.50